createdAt,value
2019-02-11T00:00:50.251Z,0.40
2019-02-11T00:05:55.823Z,0.50
2019-02-11T00:11:01.209Z,0.40
2019-02-11T00:16:06.601Z,0.30
2019-02-11T00:21:12.058Z,0.40
2019-02-11T00:26:17.445Z,0.33
2019-02-11T00:31:24.017Z,0.33
2019-02-11T00:36:29.383Z,0.47
2019-02-11T00:41:34.791Z,0.70
2019-02-11T00:46:40.178Z,0.80
2019-02-11T00:51:45.589Z,0.27
2019-02-11T00:56:50.993Z,0.93
2019-02-11T01:01:56.479Z,0.53
2019-02-11T01:07:01.883Z,0.50
2019-02-11T01:12:07.276Z,0.60
2019-02-11T01:17:12.670Z,0.60
2019-02-11T01:22:18.061Z,0.20
2019-02-11T01:27:23.476Z,0.73
2019-02-11T01:32:29.930Z,0.60
2019-02-11T01:37:35.327Z,0.83
2019-02-11T01:42:40.721Z,0.50
2019-02-11T01:47:46.110Z,0.30
2019-02-11T01:52:51.506Z,0.40
2019-02-11T01:57:56.916Z,0.30
2019-02-11T02:03:02.306Z,0.90
2019-02-11T02:08:07.708Z,0.50
2019-02-11T02:13:13.101Z,1.00
2019-02-11T02:18:18.488Z,0.50
2019-02-11T02:23:23.888Z,0.37
2019-02-11T02:28:29.282Z,0.10
2019-02-11T02:33:34.680Z,0.40
2019-02-11T02:38:40.075Z,0.77
2019-02-11T02:43:54.905Z,0.30
2019-02-11T02:48:52.561Z,0.20
2019-02-11T02:53:57.959Z,0.80
2019-02-11T02:59:03.378Z,0.50
2019-02-11T03:04:08.808Z,0.40
2019-02-11T03:09:14.173Z,0.53
2019-02-11T03:14:19.566Z,0.23
2019-02-11T03:19:24.996Z,0.53
2019-02-11T03:24:30.378Z,0.50
2019-02-11T03:29:36.039Z,0.40
2019-02-11T03:34:41.480Z,1.17
2019-02-11T03:39:46.840Z,0.77
2019-02-11T03:44:52.238Z,0.33
2019-02-11T03:49:57.639Z,0.63
2019-02-11T03:55:03.094Z,0.40
2019-02-11T04:00:11.994Z,0.30
2019-02-11T04:05:17.402Z,0.50
2019-02-11T04:10:22.810Z,0.20
2019-02-11T04:15:28.202Z,0.53
2019-02-11T04:20:33.592Z,0.73
2019-02-11T04:25:38.987Z,0.17
2019-02-11T04:30:44.395Z,0.63
2019-02-11T04:35:49.782Z,0.50
2019-02-11T04:40:55.170Z,0.30
2019-02-11T04:46:00.561Z,0.23
2019-02-11T04:51:05.952Z,0.53
2019-02-11T04:56:13.764Z,0.97
2019-02-11T05:01:19.152Z,0.20
2019-02-11T05:06:24.544Z,0.60
2019-02-11T05:11:29.938Z,0.27
2019-02-11T05:16:35.327Z,0.20
2019-02-11T05:21:40.720Z,0.40
2019-02-11T05:26:46.105Z,0.30
2019-02-11T05:31:51.494Z,0.20
2019-02-11T05:36:56.912Z,0.33
2019-02-11T05:42:02.294Z,0.40
2019-02-11T05:47:07.680Z,1.77
2019-02-11T05:52:13.060Z,0.50
2019-02-11T05:57:18.453Z,0.20
2019-02-11T06:02:23.844Z,0.40
2019-02-11T06:07:29.298Z,0.30
2019-02-11T06:12:34.780Z,0.37
2019-02-11T06:17:40.171Z,0.37
2019-02-11T06:22:45.846Z,0.30
2019-02-11T06:27:51.279Z,0.40
2019-02-11T06:32:56.728Z,0.80
2019-02-11T06:38:02.246Z,0.63
2019-02-11T06:43:07.643Z,1.93
2019-02-11T06:48:13.031Z,0.50
2019-02-11T06:53:18.420Z,0.70
2019-02-11T06:58:23.805Z,0.50
2019-02-11T07:03:29.269Z,0.70
2019-02-11T07:08:34.737Z,0.50
2019-02-11T07:13:40.218Z,0.50
2019-02-11T07:18:45.605Z,0.40
2019-02-11T07:23:51.001Z,2.07
2019-02-11T07:28:56.640Z,0.47
2019-02-11T07:34:02.036Z,1.13
2019-02-11T07:39:09.447Z,1.03
2019-02-11T07:44:18.991Z,1.13
2019-02-11T07:49:24.410Z,0.73
2019-02-11T07:54:29.838Z,0.40
2019-02-11T07:59:35.231Z,0.60
2019-02-11T08:04:40.681Z,0.93
2019-02-11T08:09:46.076Z,0.53
2019-02-11T08:14:51.641Z,0.80
2019-02-11T08:19:58.034Z,0.90
2019-02-11T08:25:03.423Z,0.70
2019-02-11T08:30:11.435Z,1.23
2019-02-11T08:35:16.897Z,1.03
2019-02-11T08:40:22.313Z,0.50
2019-02-11T08:45:27.872Z,0.77
2019-02-11T08:50:33.344Z,1.47
2019-02-11T08:55:38.724Z,4.60
2019-02-11T09:00:44.115Z,2.03
2019-02-11T09:05:49.652Z,3.37
2019-02-11T09:10:55.047Z,1.83
2019-02-11T09:16:00.437Z,1.00
2019-02-11T09:21:05.831Z,2.67
2019-02-11T09:26:13.217Z,1.83
2019-02-11T09:31:18.670Z,1.73
2019-02-11T09:36:24.123Z,2.53
2019-02-11T09:41:29.509Z,2.30
2019-02-11T09:46:35.307Z,1.00
2019-02-11T09:51:44.327Z,1.90
2019-02-11T09:56:50.152Z,2.60
2019-02-11T10:01:57.167Z,2.80
2019-02-11T10:07:02.559Z,1.47
2019-02-11T10:12:07.959Z,1.17
2019-02-11T10:17:13.352Z,1.17
2019-02-11T10:22:18.934Z,1.60
2019-02-11T10:27:24.330Z,1.30
2019-02-11T10:32:29.720Z,3.60
2019-02-11T10:37:35.108Z,2.27
2019-02-11T10:42:40.503Z,2.67
2019-02-11T10:47:49.098Z,2.63
2019-02-11T10:52:54.556Z,4.10
2019-02-11T10:57:59.958Z,2.97
2019-02-11T11:03:05.478Z,3.13
2019-02-11T11:08:11.850Z,7.77
2019-02-11T11:13:18.304Z,13.50
2019-02-11T11:18:23.698Z,15.67
2019-02-11T11:23:29.251Z,12.97
2019-02-11T11:28:34.644Z,12.43
2019-02-11T11:33:40.108Z,12.20
2019-02-11T11:38:45.517Z,10.60
2019-02-11T11:43:50.899Z,10.30
2019-02-11T11:48:56.552Z,11.17
2019-02-11T11:54:01.958Z,10.43
2019-02-11T11:59:07.343Z,10.37
2019-02-11T12:04:12.728Z,8.43
2019-02-11T12:09:18.142Z,7.87
2019-02-11T12:14:23.524Z,11.20
2019-02-11T12:19:28.917Z,11.23
2019-02-11T12:24:34.304Z,25.70
2019-02-11T12:29:39.706Z,26.07
2019-02-11T12:34:45.110Z,22.37
2019-02-11T12:39:50.487Z,23.73
2019-02-11T12:44:55.941Z,25.90
2019-02-11T12:50:01.355Z,24.20
2019-02-11T12:55:10.852Z,23.50
2019-02-11T13:00:20.784Z,23.90
2019-02-11T13:05:43.391Z,29.40
2019-02-11T13:10:33.281Z,24.73
2019-02-11T13:15:58.889Z,26.50
2019-02-11T13:20:45.786Z,22.60
2019-02-11T13:25:51.217Z,21.67
2019-02-11T13:30:56.811Z,23.80
2019-02-11T13:36:02.229Z,19.43
2019-02-11T13:41:07.657Z,23.20
2019-02-11T13:46:13.030Z,22.53
2019-02-11T13:51:18.518Z,18.20
2019-02-11T13:56:23.972Z,18.07
2019-02-11T14:01:29.380Z,15.80
2019-02-11T14:06:34.770Z,19.23
2019-02-11T14:11:40.798Z,16.70
2019-02-11T14:16:47.229Z,17.33
2019-02-11T14:21:59.792Z,15.03
2019-02-11T14:27:05.257Z,11.40
2019-02-11T14:32:11.003Z,12.23
2019-02-11T14:37:16.539Z,13.00
2019-02-11T14:42:23.052Z,13.83
2019-02-11T14:47:28.588Z,14.03
2019-02-11T14:52:34.091Z,13.67
2019-02-11T14:57:39.579Z,12.17
2019-02-11T15:02:45.030Z,9.87
2019-02-11T15:07:52.010Z,11.63
2019-02-11T15:12:57.445Z,12.50
2019-02-11T15:18:02.880Z,12.43
2019-02-11T15:23:08.343Z,10.53
2019-02-11T15:28:13.898Z,144.37
2019-02-11T15:33:19.360Z,466.37
2019-02-11T15:38:24.765Z,414.30
2019-02-11T15:43:30.160Z,439.13
2019-02-11T15:48:42.829Z,432.40
2019-02-11T15:53:42.727Z,385.20
2019-02-11T15:58:48.199Z,332.67
2019-02-11T16:03:53.769Z,302.03
2019-02-11T16:09:04.564Z,291.30
2019-02-11T16:14:08.883Z,269.57
2019-02-11T16:19:14.391Z,248.50
2019-02-11T16:24:31.627Z,237.23
2019-02-11T16:29:43.827Z,222.97
2019-02-11T16:34:49.522Z,220.00
2019-02-11T16:39:55.636Z,189.17
2019-02-11T16:45:01.229Z,195.33
2019-02-11T16:50:11.770Z,187.10
2019-02-11T16:55:18.399Z,171.70
2019-02-11T17:00:23.856Z,163.70
2019-02-11T17:05:29.283Z,158.33
2019-02-11T17:10:34.675Z,153.60
2019-02-11T17:15:40.077Z,151.13
2019-02-11T17:20:45.471Z,137.40
2019-02-11T17:25:50.905Z,135.77
2019-02-11T17:30:56.311Z,117.77
2019-02-11T17:36:01.708Z,106.03
2019-02-11T17:41:08.741Z,103.77
2019-02-11T17:46:14.987Z,99.50
2019-02-11T17:51:20.448Z,90.53
2019-02-11T17:56:26.073Z,94.60
2019-02-11T18:01:31.554Z,83.97
2019-02-11T18:06:36.981Z,83.60
2019-02-11T18:11:42.375Z,85.70
2019-02-11T18:16:47.809Z,77.90
2019-02-11T18:21:53.194Z,76.93
2019-02-11T18:26:58.617Z,73.03
2019-02-11T18:32:04.089Z,65.13
2019-02-11T18:37:09.482Z,72.60
2019-02-11T18:42:15.120Z,64.43
2019-02-11T18:47:20.607Z,64.07
2019-02-11T18:52:25.995Z,60.53
2019-02-11T18:57:31.586Z,52.43
2019-02-11T19:02:36.975Z,52.47
2019-02-11T19:07:42.719Z,51.77
2019-02-11T19:12:48.180Z,47.77
2019-02-11T19:17:53.646Z,49.17
2019-02-11T19:23:02.091Z,47.73
2019-02-11T19:28:07.532Z,47.03
2019-02-11T19:33:13.015Z,42.97
2019-02-11T19:38:18.409Z,41.80
2019-02-11T19:43:23.831Z,40.20
2019-02-11T19:48:29.229Z,36.77
2019-02-11T19:53:34.622Z,37.53
2019-02-11T19:58:40.044Z,33.90
2019-02-11T20:03:45.484Z,32.87
2019-02-11T20:08:51.975Z,35.20
2019-02-11T20:13:57.787Z,33.40
2019-02-11T20:19:03.265Z,30.20
2019-02-11T20:24:08.686Z,29.43
2019-02-11T20:29:14.563Z,27.70
2019-02-11T20:34:20.628Z,26.93
2019-02-11T20:39:26.324Z,24.57
2019-02-11T20:44:31.803Z,25.23
2019-02-11T20:49:37.249Z,23.90
2019-02-11T20:54:44.471Z,21.63
2019-02-11T20:59:49.861Z,21.73
2019-02-11T21:04:55.633Z,20.60
2019-02-11T21:10:01.123Z,21.40
2019-02-11T21:15:13.393Z,20.67
2019-02-11T21:20:32.101Z,23.27
2019-02-11T21:25:38.564Z,19.43
2019-02-11T21:30:43.980Z,19.00
2019-02-11T21:35:49.380Z,17.27
2019-02-11T21:40:54.854Z,17.90
2019-02-11T21:46:00.244Z,17.20
2019-02-11T21:51:05.748Z,17.90
2019-02-11T21:56:11.232Z,14.93
2019-02-11T22:01:16.696Z,14.67
2019-02-11T22:06:22.098Z,12.97
2019-02-11T22:11:27.501Z,15.10
2019-02-11T22:16:32.897Z,11.80
2019-02-11T22:21:38.294Z,13.97
2019-02-11T22:26:43.699Z,10.17
2019-02-11T22:31:49.097Z,11.63
2019-02-11T22:36:54.505Z,11.20
2019-02-11T22:42:00.351Z,10.23
2019-02-11T22:47:05.826Z,12.97
2019-02-11T22:52:11.254Z,10.53
2019-02-11T22:57:16.646Z,10.50
2019-02-11T23:02:22.042Z,9.63
2019-02-11T23:07:27.429Z,9.97
2019-02-11T23:12:32.827Z,8.57
2019-02-11T23:17:38.276Z,9.30
2019-02-11T23:22:43.603Z,10.20
2019-02-11T23:27:48.994Z,8.47
2019-02-11T23:32:54.381Z,8.43
2019-02-11T23:37:59.772Z,9.10
2019-02-11T23:43:05.295Z,8.03
2019-02-11T23:48:10.712Z,7.10
2019-02-11T23:53:16.090Z,7.77
2019-02-11T23:58:21.542Z,6.90
